UAE44PM EGPF-OMDB
Flight info
| Callsign | UAE44PM |
|---|---|
| Flight time | N/A |
| Altitude | 37000 |
| Route | NORBO Y96 HAVEN DCT ERKIT N110 DOLAS DCT NAVPI DCT DODEN DCT NEGIX DCT DINKU M867 XERUM DCT BAVAX DCT RADIZ DCT NIPEL DCT ELTIB DCT VRANA DCT DIMIS/N0467F390 DCT SALUN N705 MMA P751 DASUM Y234 FYM M872 BDB Y214 KODIS/N0470F410 Y214 RAPMA DCT KUVSO DCT KATIT DCT PEKEM M628 RIGIL G783 ELUDA/N0492F350 G783 ASPED Q308 KIPOK/N0494F340 Q568 IMPED |
| Aircraft | A343/H-SDE2E3FGHIJ4J5M1RWXY/LB1D1 |
Departure
| Time | 2026-05-04 12:28 |
|---|---|
| Airport | Glasgow Airport (EGPF) |
Arrival
| Time | N/A |
|---|---|
| Airport | Dubai International Airport (OMDB) |
| Time | Latitude | Longitude | Altitude | Speed | Heading |
|---|---|---|---|---|---|
| 2026-05-04 12:28 | 55.87139 | -4.52237 | 9460 ft | 276 kts | 183° |
| 2026-05-04 12:28 | 55.85272 | -4.51585 | 10114 ft | 279 kts | 151° |
| 2026-05-04 12:29 | 55.83784 | -4.49305 | 10500 ft | 293 kts | 127° |
| 2026-05-04 12:29 | 55.82688 | -4.46140 | 10782 ft | 309 kts | 115° |
| 2026-05-04 12:29 | 55.81816 | -4.42556 | 11063 ft | 324 kts | 110° |
| 2026-05-04 12:29 | 55.81012 | -4.38698 | 11322 ft | 340 kts | 109° |
| 2026-05-04 12:30 | 55.80182 | -4.34675 | 11596 ft | 354 kts | 110° |
| 2026-05-04 12:30 | 55.79283 | -4.30547 | 12028 ft | 362 kts | 111° |
| 2026-05-04 12:30 | 55.78320 | -4.26379 | 12573 ft | 367 kts | 112° |
| 2026-05-04 12:30 | 55.77338 | -4.22302 | 13108 ft | 371 kts | 113° |
| 2026-05-04 12:31 | 55.76302 | -4.18111 | 13691 ft | 374 kts | 114° |
| 2026-05-04 12:31 | 55.75238 | -4.13862 | 14283 ft | 378 kts | 114° |
| 2026-05-04 12:31 | 55.74164 | -4.09585 | 14837 ft | 381 kts | 114° |
| 2026-05-04 12:31 | 55.73080 | -4.05274 | 15383 ft | 385 kts | 114° |
| 2026-05-04 12:32 | 55.71987 | -4.00924 | 15930 ft | 388 kts | 114° |
| 2026-05-04 12:32 | 55.69777 | -3.92111 | 17000 ft | 394 kts | 114° |
| 2026-05-04 12:32 | 55.68656 | -3.87649 | 17519 ft | 397 kts | 114° |
| 2026-05-04 12:33 | 55.67542 | -3.83221 | 18005 ft | 400 kts | 114° |
| 2026-05-04 12:33 | 55.66404 | -3.78706 | 18531 ft | 403 kts | 114° |
| 2026-05-04 12:33 | 55.65258 | -3.74167 | 19029 ft | 406 kts | 114° |
| 2026-05-04 12:33 | 55.64099 | -3.69585 | 19532 ft | 409 kts | 114° |
| 2026-05-04 12:34 | 55.62929 | -3.64968 | 19990 ft | 412 kts | 114° |
| 2026-05-04 12:34 | 55.61750 | -3.60326 | 20437 ft | 415 kts | 114° |
| 2026-05-04 12:34 | 55.60562 | -3.55655 | 20894 ft | 418 kts | 114° |
| 2026-05-04 12:34 | 55.59361 | -3.50947 | 21334 ft | 421 kts | 114° |
| 2026-05-04 12:35 | 55.58154 | -3.46221 | 21757 ft | 423 kts | 114° |
| 2026-05-04 12:35 | 55.56935 | -3.41463 | 22168 ft | 426 kts | 114° |
| 2026-05-04 12:35 | 55.55726 | -3.36750 | 22565 ft | 429 kts | 114° |
| 2026-05-04 12:35 | 55.54489 | -3.31941 | 22940 ft | 432 kts | 114° |
| 2026-05-04 12:36 | 55.53240 | -3.27091 | 23286 ft | 435 kts | 114° |
| 2026-05-04 12:36 | 55.51983 | -3.22223 | 23657 ft | 438 kts | 114° |
| 2026-05-04 12:36 | 55.50714 | -3.17319 | 24024 ft | 440 kts | 114° |
| 2026-05-04 12:36 | 55.49440 | -3.12407 | 24399 ft | 442 kts | 114° |
| 2026-05-04 12:37 | 55.48155 | -3.07467 | 24745 ft | 444 kts | 115° |
| 2026-05-04 12:37 | 55.46725 | -3.02711 | 25061 ft | 446 kts | 122° |
| 2026-05-04 12:37 | 55.44907 | -2.98268 | 25396 ft | 448 kts | 130° |
| 2026-05-04 12:37 | 55.42784 | -2.94248 | 25717 ft | 450 kts | 135° |
| 2026-05-04 12:38 | 55.40513 | -2.90434 | 26024 ft | 452 kts | 137° |
| 2026-05-04 12:38 | 55.38169 | -2.86733 | 26344 ft | 454 kts | 139° |
| 2026-05-04 12:38 | 55.35787 | -2.83062 | 26639 ft | 456 kts | 139° |
| 2026-05-04 12:38 | 55.33390 | -2.79383 | 26921 ft | 458 kts | 139° |
| 2026-05-04 12:39 | 55.30996 | -2.75686 | 27190 ft | 460 kts | 139° |
| 2026-05-04 12:39 | 55.28590 | -2.71949 | 27447 ft | 462 kts | 138° |
| 2026-05-04 12:39 | 55.26185 | -2.68194 | 27715 ft | 464 kts | 138° |
| 2026-05-04 12:39 | 55.23808 | -2.64474 | 27985 ft | 465 kts | 138° |
| 2026-05-04 12:40 | 55.21391 | -2.60690 | 28232 ft | 468 kts | 138° |
| 2026-05-04 12:40 | 55.18963 | -2.56894 | 28471 ft | 469 kts | 138° |
| 2026-05-04 12:40 | 55.16519 | -2.53080 | 28727 ft | 471 kts | 138° |
| 2026-05-04 12:40 | 55.14074 | -2.49272 | 29021 ft | 471 kts | 138° |
| 2026-05-04 12:41 | 55.11629 | -2.45472 | 29357 ft | 470 kts | 138° |
| 2026-05-04 12:41 | 55.09188 | -2.41686 | 29665 ft | 469 kts | 138° |
| 2026-05-04 12:41 | 55.06749 | -2.37910 | 29971 ft | 468 kts | 138° |
| 2026-05-04 12:41 | 55.04345 | -2.34195 | 30268 ft | 468 kts | 138° |
| 2026-05-04 12:42 | 55.01905 | -2.30432 | 30555 ft | 467 kts | 138° |
| 2026-05-04 12:42 | 54.99477 | -2.26692 | 30843 ft | 467 kts | 139° |
| 2026-05-04 12:42 | 54.97045 | -2.22953 | 31127 ft | 466 kts | 139° |
| 2026-05-04 12:42 | 54.94619 | -2.19229 | 31409 ft | 465 kts | 139° |
| 2026-05-04 12:43 | 54.92192 | -2.15509 | 31648 ft | 465 kts | 139° |
| 2026-05-04 12:43 | 54.89768 | -2.11802 | 31907 ft | 464 kts | 139° |
| 2026-05-04 12:43 | 54.87402 | -2.08189 | 32161 ft | 464 kts | 139° |
| 2026-05-04 12:43 | 54.84989 | -2.04510 | 32383 ft | 464 kts | 139° |
| 2026-05-04 12:44 | 54.82567 | -2.00822 | 32616 ft | 463 kts | 139° |
| 2026-05-04 12:44 | 54.80141 | -1.97136 | 32865 ft | 463 kts | 139° |
| 2026-05-04 12:44 | 54.77722 | -1.93465 | 33084 ft | 463 kts | 139° |
| 2026-05-04 12:44 | 54.75317 | -1.89823 | 33301 ft | 462 kts | 139° |
| 2026-05-04 12:45 | 54.72899 | -1.86165 | 33556 ft | 461 kts | 139° |
| 2026-05-04 12:45 | 54.70486 | -1.82523 | 33795 ft | 460 kts | 139° |
| 2026-05-04 12:45 | 54.68106 | -1.78936 | 34008 ft | 459 kts | 139° |
| 2026-05-04 12:45 | 54.65698 | -1.75312 | 34245 ft | 459 kts | 139° |
| 2026-05-04 12:46 | 54.63290 | -1.71694 | 34426 ft | 458 kts | 139° |
| 2026-05-04 12:46 | 54.60888 | -1.68092 | 34629 ft | 458 kts | 139° |
| 2026-05-04 12:46 | 54.58483 | -1.64490 | 34799 ft | 458 kts | 139° |
| 2026-05-04 12:46 | 54.56082 | -1.60900 | 35016 ft | 457 kts | 139° |
| 2026-05-04 12:47 | 54.53675 | -1.57308 | 35194 ft | 457 kts | 139° |
| 2026-05-04 12:47 | 54.51279 | -1.53736 | 35385 ft | 456 kts | 139° |
| 2026-05-04 12:47 | 54.48878 | -1.50165 | 35554 ft | 455 kts | 139° |
| 2026-05-04 12:47 | 54.46482 | -1.46606 | 35728 ft | 455 kts | 139° |
| 2026-05-04 12:48 | 54.44086 | -1.43052 | 35885 ft | 455 kts | 139° |
| 2026-05-04 12:48 | 54.41727 | -1.39560 | 36053 ft | 454 kts | 139° |
| 2026-05-04 12:48 | 54.39340 | -1.36031 | 36175 ft | 454 kts | 139° |
| 2026-05-04 12:48 | 54.36942 | -1.32491 | 36335 ft | 454 kts | 139° |
| 2026-05-04 12:49 | 54.34543 | -1.28956 | 36451 ft | 454 kts | 139° |
| 2026-05-04 12:49 | 54.32149 | -1.25434 | 36569 ft | 455 kts | 139° |
| 2026-05-04 12:49 | 54.29746 | -1.21904 | 36687 ft | 456 kts | 139° |
| 2026-05-04 12:49 | 54.27337 | -1.18371 | 36790 ft | 456 kts | 139° |
| 2026-05-04 12:50 | 54.24928 | -1.14845 | 36903 ft | 456 kts | 139° |
| 2026-05-04 12:50 | 54.20127 | -1.07832 | 37002 ft | 459 kts | 139° |
| 2026-05-04 12:51 | 54.15289 | -1.00787 | 37000 ft | 456 kts | 139° |
| 2026-05-04 12:51 | 54.10467 | -0.93788 | 37000 ft | 455 kts | 140° |
| 2026-05-04 12:52 | 54.05644 | -0.86809 | 37000 ft | 455 kts | 140° |
| 2026-05-04 12:52 | 54.00672 | -0.80280 | 36998 ft | 455 kts | 144° |
| 2026-05-04 12:53 | 53.95482 | -0.74118 | 37001 ft | 455 kts | 145° |
| 2026-05-04 12:53 | 53.90256 | -0.68027 | 37000 ft | 455 kts | 146° |
| 2026-05-04 12:54 | 53.85038 | -0.61959 | 37000 ft | 455 kts | 145° |
| 2026-05-04 12:54 | 53.79853 | -0.55934 | 37000 ft | 455 kts | 145° |
| 2026-05-04 12:55 | 53.74626 | -0.49872 | 37000 ft | 455 kts | 146° |
| 2026-05-04 12:55 | 53.69400 | -0.43828 | 37000 ft | 455 kts | 145° |
| 2026-05-04 12:56 | 53.64214 | -0.37841 | 37000 ft | 455 kts | 146° |
| 2026-05-04 12:56 | 53.59058 | -0.31682 | 37001 ft | 455 kts | 139° |
| 2026-05-04 12:57 | 53.54769 | -0.23893 | 37000 ft | 454 kts | 128° |
| 2026-05-04 12:57 | 53.50934 | -0.15449 | 37001 ft | 455 kts | 126° |
| 2026-05-04 12:58 | 53.47154 | -0.06924 | 37000 ft | 455 kts | 127° |
| 2026-05-04 12:58 | 53.43401 | 0.01453 | 37000 ft | 455 kts | 127° |
| 2026-05-04 12:59 | 53.39564 | 0.09925 | 36998 ft | 455 kts | 127° |
| 2026-05-04 12:59 | 53.35750 | 0.18302 | 36996 ft | 455 kts | 127° |
| 2026-05-04 13:00 | 53.31911 | 0.26705 | 37000 ft | 455 kts | 127° |
| 2026-05-04 13:00 | 53.28093 | 0.35037 | 37000 ft | 455 kts | 127° |
| 2026-05-04 13:01 | 53.24238 | 0.43428 | 37000 ft | 455 kts | 127° |
| 2026-05-04 13:01 | 53.20388 | 0.51791 | 37000 ft | 455 kts | 127° |
| 2026-05-04 13:02 | 53.16527 | 0.60131 | 37000 ft | 455 kts | 128° |
| 2026-05-04 13:02 | 53.12681 | 0.68411 | 37000 ft | 455 kts | 128° |
| 2026-05-04 13:03 | 53.08809 | 0.76725 | 37000 ft | 455 kts | 128° |
| 2026-05-04 13:03 | 53.04927 | 0.85035 | 37000 ft | 455 kts | 128° |
| 2026-05-04 13:04 | 53.01047 | 0.93316 | 37000 ft | 455 kts | 128° |
| 2026-05-04 13:04 | 52.97600 | 1.02007 | 37000 ft | 454 kts | 115° |
| 2026-05-04 13:05 | 52.95195 | 1.11688 | 37001 ft | 454 kts | 111° |
| 2026-05-04 13:05 | 52.92989 | 1.21487 | 37000 ft | 455 kts | 110° |
| 2026-05-04 13:06 | 52.90796 | 1.31285 | 37000 ft | 455 kts | 110° |
| 2026-05-04 13:06 | 52.88573 | 1.41078 | 37000 ft | 455 kts | 110° |
| 2026-05-04 13:07 | 52.86330 | 1.50850 | 37000 ft | 455 kts | 111° |
| 2026-05-04 13:07 | 52.84075 | 1.60621 | 37000 ft | 455 kts | 111° |
| 2026-05-04 13:08 | 52.81810 | 1.70395 | 37000 ft | 455 kts | 111° |
| 2026-05-04 13:08 | 52.79555 | 1.80082 | 37000 ft | 455 kts | 111° |
| 2026-05-04 13:09 | 52.77277 | 1.89826 | 37000 ft | 455 kts | 111° |
| 2026-05-04 13:09 | 52.74991 | 1.99560 | 37000 ft | 455 kts | 111° |
| 2026-05-04 13:10 | 52.72698 | 2.09282 | 37000 ft | 455 kts | 111° |
| 2026-05-04 13:10 | 52.70412 | 2.18928 | 37000 ft | 455 kts | 111° |
| 2026-05-04 13:11 | 52.68106 | 2.28617 | 37000 ft | 455 kts | 111° |
| 2026-05-04 13:11 | 52.65788 | 2.38313 | 37000 ft | 455 kts | 111° |
| 2026-05-04 13:12 | 52.63468 | 2.47971 | 37000 ft | 455 kts | 111° |
| 2026-05-04 13:12 | 52.61138 | 2.57631 | 37000 ft | 455 kts | 111° |
| 2026-05-04 13:13 | 52.58813 | 2.67228 | 36998 ft | 455 kts | 111° |
| 2026-05-04 13:13 | 52.56464 | 2.76880 | 37000 ft | 455 kts | 112° |
| 2026-05-04 13:14 | 52.53897 | 2.86368 | 37002 ft | 454 kts | 117° |
| 2026-05-04 13:14 | 52.50913 | 2.95503 | 37000 ft | 455 kts | 118° |
| 2026-05-04 13:15 | 52.47916 | 3.04526 | 36999 ft | 454 kts | 117° |
| 2026-05-04 13:15 | 52.44920 | 3.13677 | 37000 ft | 455 kts | 117° |
| 2026-05-04 13:16 | 52.41870 | 3.22753 | 37001 ft | 455 kts | 118° |
| 2026-05-04 13:16 | 52.38785 | 3.31779 | 37000 ft | 455 kts | 118° |
| 2026-05-04 13:17 | 52.35725 | 3.40690 | 36999 ft | 455 kts | 118° |
| 2026-05-04 13:17 | 52.32622 | 3.49719 | 37000 ft | 455 kts | 119° |
| 2026-05-04 13:18 | 52.29527 | 3.58711 | 36999 ft | 455 kts | 119° |
| 2026-05-04 13:18 | 52.26944 | 3.66197 | 37000 ft | 455 kts | 119° |
| 2026-05-04 13:19 | 52.23835 | 3.75183 | 37001 ft | 455 kts | 119° |
| 2026-05-04 13:19 | 52.20335 | 3.85268 | 37001 ft | 455 kts | 119° |
| 2026-05-04 13:20 | 52.17758 | 3.92672 | 36998 ft | 455 kts | 119° |
| 2026-05-04 13:20 | 52.14632 | 4.01627 | 37001 ft | 455 kts | 119° |
| 2026-05-04 13:21 | 52.11502 | 4.10564 | 37001 ft | 455 kts | 120° |
| 2026-05-04 13:21 | 52.07856 | 4.20938 | 36999 ft | 455 kts | 120° |
| 2026-05-04 13:22 | 52.05248 | 4.28335 | 37000 ft | 455 kts | 120° |
| 2026-05-04 13:22 | 52.02094 | 4.37250 | 36998 ft | 455 kts | 120° |
| 2026-05-04 13:23 | 51.98941 | 4.46134 | 36999 ft | 455 kts | 120° |
| 2026-05-04 13:23 | 51.95775 | 4.55022 | 37000 ft | 455 kts | 120° |
| 2026-05-04 13:24 | 51.92606 | 4.63891 | 37000 ft | 455 kts | 120° |
| 2026-05-04 13:24 | 51.89453 | 4.72683 | 37000 ft | 455 kts | 120° |
| 2026-05-04 13:25 | 51.84680 | 4.85934 | 37000 ft | 455 kts | 120° |
| 2026-05-04 13:25 | 51.81487 | 4.94765 | 37000 ft | 455 kts | 120° |
| 2026-05-04 13:26 | 51.78310 | 5.03517 | 37001 ft | 455 kts | 120° |
| 2026-05-04 13:26 | 51.75108 | 5.12308 | 37000 ft | 455 kts | 120° |
| 2026-05-04 13:27 | 51.71898 | 5.21088 | 37001 ft | 455 kts | 120° |
| 2026-05-04 13:27 | 51.68678 | 5.29868 | 37000 ft | 455 kts | 121° |
| 2026-05-04 13:28 | 51.65458 | 5.38620 | 37000 ft | 455 kts | 121° |
| 2026-05-04 13:28 | 51.62246 | 5.47317 | 37000 ft | 455 kts | 121° |
| 2026-05-04 13:29 | 51.59011 | 5.56050 | 37001 ft | 455 kts | 121° |
| 2026-05-04 13:29 | 51.55764 | 5.64782 | 37000 ft | 455 kts | 121° |
| 2026-05-04 13:30 | 51.52527 | 5.73460 | 36998 ft | 455 kts | 121° |
| 2026-05-04 13:30 | 51.49294 | 5.82097 | 36995 ft | 455 kts | 121° |
| 2026-05-04 13:31 | 51.46035 | 5.90774 | 36994 ft | 455 kts | 121° |
| 2026-05-04 13:31 | 51.42765 | 5.99451 | 37001 ft | 455 kts | 121° |
| 2026-05-04 13:32 | 51.39486 | 6.08123 | 37001 ft | 455 kts | 121° |
| 2026-05-04 13:32 | 51.36205 | 6.16770 | 37000 ft | 455 kts | 121° |
| 2026-05-04 13:33 | 51.32937 | 6.25355 | 37000 ft | 455 kts | 121° |
| 2026-05-04 13:33 | 51.29643 | 6.33981 | 37000 ft | 455 kts | 121° |
| 2026-05-04 13:34 | 51.26337 | 6.42606 | 37000 ft | 455 kts | 121° |
| 2026-05-04 13:34 | 51.23028 | 6.51211 | 37000 ft | 455 kts | 121° |
| 2026-05-04 13:35 | 51.18075 | 6.64038 | 37000 ft | 455 kts | 122° |
| 2026-05-04 13:36 | 51.14751 | 6.72611 | 37000 ft | 455 kts | 122° |
| 2026-05-04 13:36 | 51.11434 | 6.81138 | 37000 ft | 455 kts | 122° |
| 2026-05-04 13:37 | 51.08082 | 6.89725 | 37000 ft | 455 kts | 122° |
| 2026-05-04 13:37 | 51.04761 | 6.98204 | 37000 ft | 455 kts | 122° |
| 2026-05-04 13:38 | 51.01414 | 7.06724 | 37000 ft | 455 kts | 122° |
| 2026-05-04 13:38 | 50.98055 | 7.15245 | 37001 ft | 455 kts | 122° |
| 2026-05-04 13:39 | 50.94688 | 7.23758 | 37001 ft | 456 kts | 122° |
| 2026-05-04 13:39 | 50.91314 | 7.32260 | 37000 ft | 456 kts | 122° |
| 2026-05-04 13:40 | 50.87932 | 7.40754 | 37000 ft | 456 kts | 122° |
| 2026-05-04 13:40 | 50.84564 | 7.49185 | 37000 ft | 456 kts | 122° |
| 2026-05-04 13:41 | 50.81168 | 7.57661 | 37001 ft | 456 kts | 122° |
| 2026-05-04 13:41 | 50.77760 | 7.66137 | 37000 ft | 456 kts | 122° |
| 2026-05-04 13:42 | 50.72652 | 7.78792 | 37000 ft | 456 kts | 122° |
| 2026-05-04 13:42 | 50.69228 | 7.87242 | 37000 ft | 457 kts | 122° |
| 2026-05-04 13:43 | 50.65796 | 7.95682 | 37000 ft | 458 kts | 122° |
| 2026-05-04 13:43 | 50.62353 | 8.04121 | 37000 ft | 458 kts | 123° |
| 2026-05-04 13:44 | 50.58683 | 8.12315 | 37000 ft | 458 kts | 128° |
| 2026-05-04 13:44 | 50.54737 | 8.20187 | 37001 ft | 458 kts | 128° |
| 2026-05-04 13:45 | 50.50754 | 8.27984 | 37000 ft | 456 kts | 129° |
| 2026-05-04 13:45 | 50.46778 | 8.35742 | 37000 ft | 456 kts | 129° |
| 2026-05-04 13:46 | 50.42797 | 8.43503 | 37000 ft | 457 kts | 129° |
| 2026-05-04 13:46 | 50.38807 | 8.51268 | 37000 ft | 457 kts | 129° |
| 2026-05-04 13:47 | 50.34703 | 8.58869 | 37001 ft | 457 kts | 133° |
| 2026-05-04 13:47 | 50.30304 | 8.66061 | 37000 ft | 457 kts | 134° |
| 2026-05-04 13:48 | 50.25893 | 8.73216 | 37000 ft | 456 kts | 134° |
| 2026-05-04 13:48 | 50.21533 | 8.80407 | 37000 ft | 456 kts | 133° |
| 2026-05-04 13:49 | 50.17189 | 8.87624 | 37000 ft | 456 kts | 133° |
| 2026-05-04 13:49 | 50.12883 | 8.94767 | 37000 ft | 455 kts | 133° |
| 2026-05-04 13:50 | 50.08534 | 9.01955 | 37000 ft | 455 kts | 133° |
| 2026-05-04 13:50 | 50.04186 | 9.09119 | 37000 ft | 455 kts | 133° |
| 2026-05-04 13:51 | 49.99823 | 9.16285 | 37001 ft | 456 kts | 133° |
| 2026-05-04 13:51 | 49.95457 | 9.23436 | 37000 ft | 456 kts | 133° |
| 2026-05-04 13:52 | 49.88891 | 9.34152 | 37000 ft | 457 kts | 133° |
| 2026-05-04 13:53 | 49.84503 | 9.41287 | 37000 ft | 457 kts | 134° |
| 2026-05-04 13:53 | 49.80108 | 9.48416 | 37000 ft | 457 kts | 134° |
| 2026-05-04 13:54 | 49.73521 | 9.59061 | 36999 ft | 456 kts | 134° |
| 2026-05-04 13:55 | 49.66928 | 9.69672 | 37000 ft | 457 kts | 134° |
| 2026-05-04 13:55 | 49.61069 | 9.79063 | 36998 ft | 457 kts | 134° |
| 2026-05-04 13:56 | 49.56659 | 9.86109 | 37000 ft | 457 kts | 134° |
| 2026-05-04 13:57 | 49.50031 | 9.96663 | 37001 ft | 457 kts | 134° |
| 2026-05-04 13:58 | 49.41178 | 10.10693 | 37000 ft | 458 kts | 134° |
| 2026-05-04 13:58 | 49.34515 | 10.21200 | 37000 ft | 458 kts | 134° |
| 2026-05-04 13:59 | 49.30082 | 10.28166 | 37000 ft | 458 kts | 134° |
| 2026-05-04 14:00 | 49.23213 | 10.38320 | 37001 ft | 458 kts | 144° |
| 2026-05-04 14:00 | 49.15141 | 10.46117 | 37001 ft | 458 kts | 149° |
| 2026-05-04 14:01 | 49.09655 | 10.51061 | 37000 ft | 458 kts | 149° |
| 2026-05-04 14:02 | 49.01423 | 10.58477 | 37000 ft | 458 kts | 149° |
| 2026-05-04 14:02 | 48.95946 | 10.63425 | 37000 ft | 458 kts | 149° |
| 2026-05-04 14:03 | 48.90464 | 10.68369 | 37000 ft | 458 kts | 149° |
| 2026-05-04 14:03 | 48.85023 | 10.73262 | 37000 ft | 458 kts | 149° |
| 2026-05-04 14:04 | 48.77695 | 10.82462 | 37000 ft | 458 kts | 133° |
| 2026-05-04 14:04 | 48.73397 | 10.89596 | 37001 ft | 458 kts | 131° |
| 2026-05-04 14:05 | 48.67034 | 11.00363 | 37000 ft | 457 kts | 132° |
| 2026-05-04 14:06 | 48.62767 | 11.07504 | 37000 ft | 458 kts | 132° |
| 2026-05-04 14:06 | 48.58481 | 11.14629 | 37000 ft | 458 kts | 132° |
| 2026-05-04 14:07 | 48.54196 | 11.21730 | 37000 ft | 458 kts | 132° |